createdAt,value
2022-08-23T00:02:04.004Z,77.20
2022-08-23T00:04:37.174Z,77.81
2022-08-23T00:07:07.105Z,78.03
2022-08-23T00:09:35.808Z,78.03
2022-08-23T00:12:13.191Z,77.94
2022-08-23T00:14:45.392Z,77.46
2022-08-23T00:17:33.587Z,77.56
2022-08-23T00:20:02.689Z,77.29
2022-08-23T00:22:30.498Z,77.03
2022-08-23T00:24:58.250Z,77.39
2022-08-23T00:27:27.792Z,77.61
2022-08-23T00:29:57.047Z,77.89
2022-08-23T00:32:26.781Z,77.98
2022-08-23T00:34:54.689Z,78.15
2022-08-23T00:37:23.449Z,78.31
2022-08-23T00:39:51.286Z,78.71
2022-08-23T00:42:47.484Z,79.47
2022-08-23T00:45:36.297Z,79.68
2022-08-23T00:48:05.419Z,79.14
2022-08-23T00:50:36.610Z,78.75
2022-08-23T00:53:08.091Z,78.75
2022-08-23T00:55:36.555Z,79.02
2022-08-23T00:58:05.663Z,78.94
2022-08-23T01:00:34.023Z,78.73
2022-08-23T01:03:02.838Z,78.54
2022-08-23T01:05:37.751Z,78.27
2022-08-23T01:08:05.679Z,78.05
2022-08-23T01:10:38.743Z,77.38
2022-08-23T01:13:10.692Z,77.13
2022-08-23T01:15:42.364Z,77.24
2022-08-23T01:18:12.134Z,77.23
2022-08-23T01:20:43.960Z,77.63
2022-08-23T01:23:27.569Z,77.90
2022-08-23T01:25:55.585Z,78.05
2022-08-23T01:28:23.333Z,78.61
2022-08-23T01:30:51.718Z,78.68
2022-08-23T01:33:19.622Z,78.13
2022-08-23T01:35:49.893Z,78.07
2022-08-23T01:38:17.736Z,78.27
2022-08-23T01:40:47.280Z,78.17
2022-08-23T01:43:18.133Z,78.19
2022-08-23T01:45:45.879Z,78.21
2022-08-23T01:48:14.114Z,78.10
2022-08-23T01:50:41.875Z,78.45
2022-08-23T01:53:09.645Z,79.28
2022-08-23T01:55:37.866Z,79.37
2022-08-23T01:58:08.081Z,79.37
2022-08-23T02:00:39.095Z,78.98
2022-08-23T02:03:07.440Z,79.29
2022-08-23T02:05:37.319Z,80.02
2022-08-23T02:08:19.700Z,80.60
2022-08-23T02:10:47.439Z,80.68
2022-08-23T02:13:17.104Z,80.77
2022-08-23T02:15:44.994Z,80.67
2022-08-23T02:18:13.504Z,80.64
2022-08-23T02:20:45.505Z,80.67
2022-08-23T02:23:13.608Z,80.55
2022-08-23T02:25:41.364Z,80.42
2022-08-23T02:28:09.254Z,80.01
2022-08-23T02:30:38.462Z,80.11
2022-08-23T02:33:06.207Z,79.90
2022-08-23T02:35:34.398Z,80.00
2022-08-23T02:38:04.483Z,79.81
2022-08-23T02:40:32.402Z,79.71
2022-08-23T02:43:01.015Z,80.13
2022-08-23T02:45:29.339Z,80.27
2022-08-23T02:47:58.566Z,80.68
2022-08-23T02:50:27.491Z,80.86
2022-08-23T02:52:55.960Z,81.22
2022-08-23T02:55:23.631Z,81.01
2022-08-23T02:57:51.430Z,80.78
2022-08-23T03:00:20.187Z,80.84
2022-08-23T03:02:48.556Z,80.45
2022-08-23T03:05:18.479Z,80.43
2022-08-23T03:07:46.221Z,80.29
2022-08-23T03:10:16.394Z,79.97
2022-08-23T03:12:44.079Z,79.95
2022-08-23T03:15:12.725Z,80.23
2022-08-23T03:17:40.414Z,80.64
2022-08-23T03:20:09.692Z,80.84
2022-08-23T03:22:38.838Z,81.33
2022-08-23T03:25:08.128Z,81.61
2022-08-23T03:27:44.571Z,81.22
2022-08-23T03:30:19.145Z,81.27
2022-08-23T03:32:48.129Z,80.44
2022-08-23T03:35:17.427Z,80.83
2022-08-23T03:37:46.564Z,81.32
2022-08-23T03:40:14.971Z,81.53
2022-08-23T03:42:42.856Z,81.29
2022-08-23T03:45:11.481Z,81.46
2022-08-23T03:47:39.619Z,81.39
2022-08-23T03:50:08.348Z,81.35
2022-08-23T03:52:36.357Z,81.41
2022-08-23T03:55:05.994Z,81.22
2022-08-23T03:57:34.013Z,81.21
2022-08-23T04:00:01.787Z,81.24
2022-08-23T04:02:29.512Z,81.62
2022-08-23T04:04:57.592Z,81.49
2022-08-23T04:07:25.776Z,81.20
2022-08-23T04:09:55.389Z,81.28
2022-08-23T04:12:24.655Z,81.21
2022-08-23T04:14:53.483Z,80.76
2022-08-23T04:17:21.636Z,80.36
2022-08-23T04:19:49.482Z,80.52
2022-08-23T04:22:19.453Z,80.33
2022-08-23T04:24:47.482Z,80.41
2022-08-23T04:27:15.492Z,80.35
2022-08-23T04:29:44.682Z,80.47
2022-08-23T04:32:12.775Z,80.49
2022-08-23T04:34:42.365Z,80.35
2022-08-23T04:37:13.763Z,80.12
2022-08-23T04:39:56.132Z,80.18
2022-08-23T04:42:24.071Z,79.99
2022-08-23T04:44:53.304Z,79.80
2022-08-23T04:47:21.492Z,79.37
2022-08-23T04:49:49.434Z,79.14
2022-08-23T04:52:19.390Z,78.81
2022-08-23T04:54:47.817Z,78.58
2022-08-23T04:57:16.634Z,78.01
2022-08-23T04:59:44.349Z,78.19
2022-08-23T05:02:14.438Z,78.56
2022-08-23T05:04:42.467Z,78.79
2022-08-23T05:07:10.818Z,78.57
2022-08-23T05:09:38.544Z,78.65
2022-08-23T05:12:06.805Z,79.17
2022-08-23T05:14:34.917Z,78.84
2022-08-23T05:17:03.107Z,78.75
2022-08-23T05:19:33.062Z,78.38
2022-08-23T05:22:00.769Z,78.26
2022-08-23T05:24:28.575Z,78.58
2022-08-23T05:26:56.281Z,78.45
2022-08-23T05:29:23.984Z,78.21
2022-08-23T05:31:52.174Z,78.10
2022-08-23T05:34:22.801Z,77.98
2022-08-23T05:36:55.957Z,78.39
2022-08-23T05:39:32.939Z,78.27
2022-08-23T05:42:04.695Z,78.50
2022-08-23T05:44:36.813Z,78.54
2022-08-23T05:47:10.143Z,78.74
2022-08-23T05:49:40.243Z,78.88
2022-08-23T05:52:14.782Z,78.85
2022-08-23T05:54:42.548Z,79.19
2022-08-23T05:57:11.524Z,79.58
2022-08-23T05:59:41.888Z,79.33
2022-08-23T06:02:10.234Z,79.46
2022-08-23T06:04:38.031Z,79.44
2022-08-23T06:07:06.626Z,78.95
2022-08-23T06:09:35.897Z,78.77
2022-08-23T06:12:04.159Z,78.77
2022-08-23T06:14:31.963Z,79.33
2022-08-23T06:16:59.792Z,79.00
2022-08-23T06:19:27.576Z,79.14
2022-08-23T06:21:55.543Z,79.21
2022-08-23T06:24:23.238Z,79.25
2022-08-23T06:26:52.387Z,79.46
2022-08-23T06:29:21.009Z,79.64
2022-08-23T06:31:50.738Z,78.78
2022-08-23T06:34:21.669Z,78.28
2022-08-23T06:36:51.454Z,77.89
2022-08-23T06:39:20.452Z,78.03
2022-08-23T06:41:49.667Z,77.03
2022-08-23T06:44:20.280Z,77.18
2022-08-23T06:46:49.367Z,76.36
2022-08-23T06:49:17.662Z,76.82
2022-08-23T06:51:47.393Z,76.68
2022-08-23T06:54:16.533Z,75.66
2022-08-23T06:56:45.080Z,75.10
2022-08-23T06:59:13.479Z,74.54
2022-08-23T07:01:46.618Z,75.24
2022-08-23T07:04:17.016Z,75.06
2022-08-23T07:06:45.167Z,75.16
2022-08-23T07:09:13.246Z,74.89
2022-08-23T07:11:41.175Z,74.95
2022-08-23T07:14:11.536Z,74.83
2022-08-23T07:16:41.079Z,74.29
2022-08-23T07:19:10.249Z,73.99
2022-08-23T07:21:38.586Z,73.99
2022-08-23T07:24:08.383Z,72.64
2022-08-23T07:26:37.211Z,72.53
2022-08-23T07:29:05.535Z,72.75
2022-08-23T07:31:36.037Z,73.21
2022-08-23T07:34:05.481Z,73.50
2022-08-23T07:36:36.354Z,73.24
2022-08-23T07:39:08.472Z,73.45
2022-08-23T07:41:38.735Z,73.75
2022-08-23T07:44:08.659Z,72.37
2022-08-23T07:46:37.674Z,72.07
2022-08-23T07:49:05.910Z,72.35
2022-08-23T07:51:36.094Z,71.05
2022-08-23T07:54:05.737Z,72.18
2022-08-23T07:56:33.578Z,72.37
2022-08-23T07:59:01.494Z,70.52
2022-08-23T08:01:30.698Z,69.61
2022-08-23T08:04:00.389Z,69.25
2022-08-23T08:06:31.844Z,67.52
2022-08-23T08:09:00.959Z,66.56
2022-08-23T08:11:34.804Z,66.62
2022-08-23T08:14:04.445Z,65.77
2022-08-23T08:16:34.313Z,64.59
2022-08-23T08:19:03.861Z,65.48
2022-08-23T08:21:31.631Z,64.71
2022-08-23T08:24:00.868Z,63.45
2022-08-23T08:26:28.957Z,63.43
2022-08-23T08:28:57.197Z,63.00
2022-08-23T08:31:28.741Z,62.30
2022-08-23T08:33:56.635Z,61.51
2022-08-23T08:36:33.554Z,62.38
2022-08-23T08:39:03.009Z,61.51
2022-08-23T08:41:42.091Z,60.32
2022-08-23T08:44:16.422Z,58.69
2022-08-23T08:46:46.285Z,58.11
2022-08-23T08:49:15.787Z,59.21
2022-08-23T08:51:47.207Z,58.72
2022-08-23T08:54:19.812Z,59.29
2022-08-23T08:56:51.206Z,59.23
2022-08-23T08:59:22.030Z,59.20
2022-08-23T09:01:50.179Z,58.88
2022-08-23T09:04:17.985Z,58.14
2022-08-23T09:06:52.167Z,59.32
2022-08-23T09:09:34.274Z,58.71
2022-08-23T09:12:06.677Z,58.44
2022-08-23T09:14:56.659Z,57.03
2022-08-23T09:17:34.827Z,54.87
2022-08-23T09:20:05.809Z,54.76
2022-08-23T09:22:37.766Z,54.11
2022-08-23T09:25:10.806Z,55.09
2022-08-23T09:27:39.439Z,55.04
2022-08-23T09:30:16.282Z,55.02
2022-08-23T09:32:46.534Z,53.79
2022-08-23T09:35:18.176Z,55.02
2022-08-23T09:37:57.204Z,54.45
2022-08-23T09:40:39.017Z,52.86
2022-08-23T09:43:13.743Z,52.54
2022-08-23T09:45:44.428Z,52.57
2022-08-23T09:48:14.626Z,53.46
2022-08-23T09:50:47.919Z,52.86
2022-08-23T09:53:17.100Z,53.14
2022-08-23T09:55:50.230Z,53.77
2022-08-23T09:58:19.667Z,53.43
2022-08-23T10:00:48.039Z,53.25
2022-08-23T10:03:24.620Z,52.71
2022-08-23T10:05:54.729Z,52.12
2022-08-23T10:08:29.666Z,51.97
2022-08-23T10:11:03.660Z,51.86
2022-08-23T10:13:32.409Z,50.77
2022-08-23T10:16:06.981Z,50.57
2022-08-23T10:18:44.726Z,50.15
2022-08-23T10:21:23.863Z,50.27
2022-08-23T10:23:58.656Z,49.26
2022-08-23T10:26:31.537Z,51.22
2022-08-23T10:29:22.577Z,50.82
2022-08-23T10:31:59.469Z,49.96
2022-08-23T10:34:39.804Z,50.86
2022-08-23T10:37:18.384Z,49.96
2022-08-23T10:39:49.260Z,50.63
2022-08-23T10:42:27.183Z,48.68
2022-08-23T10:44:59.538Z,48.87
2022-08-23T10:47:34.654Z,48.39
2022-08-23T10:50:09.806Z,48.96
2022-08-23T10:52:40.586Z,48.52
2022-08-23T10:55:35.447Z,49.16
2022-08-23T10:58:09.301Z,49.31
2022-08-23T11:00:39.067Z,48.88
2022-08-23T11:03:13.249Z,48.10
2022-08-23T11:05:41.159Z,49.11
2022-08-23T11:08:11.712Z,47.99
2022-08-23T11:10:56.857Z,47.64
2022-08-23T11:13:29.319Z,48.10
2022-08-23T11:16:00.724Z,48.38
2022-08-23T11:18:42.455Z,48.40
2022-08-23T11:21:13.764Z,48.21
2022-08-23T11:23:50.615Z,49.50
2022-08-23T11:27:06.690Z,48.56
2022-08-23T11:29:41.409Z,48.23
2022-08-23T11:32:34.248Z,48.52
2022-08-23T11:35:08.918Z,48.45
2022-08-23T11:37:52.599Z,47.98
2022-08-23T11:40:39.791Z,48.07
2022-08-23T11:43:12.603Z,49.03
2022-08-23T11:45:46.303Z,47.30
2022-08-23T11:48:19.249Z,47.61
2022-08-23T11:51:02.783Z,47.51
2022-08-23T11:53:56.369Z,47.04
2022-08-23T11:56:44.396Z,47.31
2022-08-23T11:59:26.288Z,46.62
2022-08-23T12:01:55.340Z,45.59
2022-08-23T12:04:34.276Z,45.01
2022-08-23T12:07:07.084Z,44.79
2022-08-23T12:10:25.213Z,45.44
2022-08-23T12:13:27.417Z,44.65
2022-08-23T12:16:16.285Z,44.16
2022-08-23T12:19:19.686Z,43.97
2022-08-23T12:21:51.860Z,43.10
2022-08-23T12:24:24.664Z,43.90
2022-08-23T12:27:03.157Z,45.03
2022-08-23T12:29:46.232Z,45.20
2022-08-23T12:32:19.952Z,45.52
2022-08-23T12:34:59.286Z,43.90
2022-08-23T12:37:38.254Z,43.85
2022-08-23T12:40:10.139Z,45.05
2022-08-23T12:42:40.346Z,46.00
2022-08-23T12:45:12.815Z,44.23
2022-08-23T12:47:43.104Z,43.99
2022-08-23T12:50:22.563Z,43.77
2022-08-23T12:53:04.863Z,44.03
2022-08-23T12:55:36.924Z,44.17
2022-08-23T12:58:06.117Z,43.26
2022-08-23T13:00:40.073Z,43.41
2022-08-23T13:03:15.935Z,44.29
2022-08-23T13:05:48.001Z,44.67
2022-08-23T13:08:33.623Z,44.90
2022-08-23T13:11:07.790Z,44.92
2022-08-23T13:13:39.285Z,44.71
2022-08-23T13:16:27.230Z,45.58
2022-08-23T13:18:56.757Z,46.12
2022-08-23T13:21:31.950Z,46.54
2022-08-23T13:24:36.563Z,48.48
2022-08-23T13:27:15.819Z,49.64
2022-08-23T13:29:51.510Z,49.50
2022-08-23T13:32:41.963Z,50.23
2022-08-23T13:35:35.616Z,50.60
2022-08-23T13:38:14.763Z,52.46
2022-08-23T13:40:56.901Z,53.06
2022-08-23T13:43:27.785Z,51.37
2022-08-23T13:45:57.132Z,49.91
2022-08-23T13:48:27.083Z,50.07
2022-08-23T13:50:54.912Z,50.91
2022-08-23T13:53:25.923Z,53.40
2022-08-23T13:55:55.681Z,54.27
2022-08-23T13:58:30.554Z,54.16
2022-08-23T14:01:00.624Z,55.34
2022-08-23T14:03:29.322Z,55.93
2022-08-23T14:05:57.453Z,55.05
2022-08-23T14:08:26.770Z,54.14
2022-08-23T14:10:54.634Z,52.92
2022-08-23T14:13:26.055Z,54.84
2022-08-23T14:15:56.534Z,55.11
2022-08-23T14:18:25.169Z,53.90
2022-08-23T14:20:54.097Z,55.68
2022-08-23T14:23:21.908Z,56.55
2022-08-23T14:25:53.083Z,57.83
2022-08-23T14:28:21.189Z,58.72
2022-08-23T14:30:49.258Z,60.01
2022-08-23T14:33:17.547Z,60.79
2022-08-23T14:35:45.441Z,62.41
2022-08-23T14:38:22.087Z,63.44
2022-08-23T14:40:55.761Z,64.91
2022-08-23T14:43:23.812Z,66.17
2022-08-23T14:45:55.332Z,67.07
2022-08-23T14:48:25.419Z,67.36
2022-08-23T14:50:54.077Z,67.87
2022-08-23T14:53:24.784Z,68.62
2022-08-23T14:56:12.395Z,69.68
2022-08-23T14:58:42.945Z,69.58
2022-08-23T15:01:11.579Z,69.62
2022-08-23T15:03:41.925Z,70.00
2022-08-23T15:06:10.094Z,70.22
2022-08-23T15:08:38.085Z,70.91
2022-08-23T15:14:00.103Z,70.84
2022-08-23T15:16:28.646Z,70.91
2022-08-23T15:18:57.800Z,71.13
2022-08-23T15:21:25.625Z,71.09
2022-08-23T15:23:53.828Z,71.00
2022-08-23T15:26:25.998Z,71.05
2022-08-23T15:28:59.879Z,71.45
2022-08-23T15:31:30.779Z,71.80
2022-08-23T15:34:01.872Z,72.57
2022-08-23T15:39:15.527Z,72.14
2022-08-23T15:41:45.289Z,72.14
2022-08-23T15:44:13.533Z,72.43
2022-08-23T15:46:41.751Z,72.92
2022-08-23T15:49:13.384Z,74.11
2022-08-23T15:51:44.165Z,74.90
2022-08-23T15:54:12.243Z,75.64
2022-08-23T15:56:49.327Z,76.20
2022-08-23T15:59:19.616Z,76.95
2022-08-23T16:01:47.430Z,76.28
2022-08-23T16:04:16.081Z,75.52
2022-08-23T16:06:45.356Z,74.91
2022-08-23T16:09:17.901Z,74.33
2022-08-23T16:11:47.246Z,74.95
2022-08-23T16:14:15.304Z,75.09
2022-08-23T16:16:47.095Z,74.34
2022-08-23T16:19:16.774Z,74.62
2022-08-23T16:21:44.994Z,74.29
2022-08-23T16:24:13.236Z,75.36
2022-08-23T16:26:47.997Z,75.01
2022-08-23T16:29:19.400Z,74.71
2022-08-23T16:31:47.563Z,74.90
2022-08-23T16:34:17.249Z,74.94
2022-08-23T16:36:46.951Z,74.87
2022-08-23T16:39:16.126Z,74.76
2022-08-23T16:41:44.273Z,74.85
2022-08-23T16:44:21.597Z,74.73
2022-08-23T16:46:55.002Z,75.08
2022-08-23T16:49:23.006Z,75.18
2022-08-23T16:51:50.976Z,75.06
2022-08-23T16:54:19.810Z,75.30
2022-08-23T16:56:47.765Z,75.64
2022-08-23T16:59:15.792Z,75.78
2022-08-23T17:01:46.897Z,76.02
2022-08-23T17:04:17.130Z,76.01
2022-08-23T17:06:46.376Z,76.12
2022-08-23T17:09:15.522Z,76.22
2022-08-23T17:11:45.427Z,76.27
2022-08-23T17:14:13.995Z,76.54
2022-08-23T17:16:42.937Z,76.79
2022-08-23T17:22:18.969Z,76.80
2022-08-23T17:24:46.871Z,77.80
2022-08-23T17:27:19.139Z,77.26
2022-08-23T17:29:47.450Z,77.28
2022-08-23T17:32:15.483Z,77.05
2022-08-23T17:34:44.311Z,77.17
2022-08-23T17:37:16.713Z,77.50
2022-08-23T17:39:50.319Z,77.30
2022-08-23T17:42:21.776Z,77.32
2022-08-23T17:44:52.067Z,76.88
2022-08-23T17:47:20.847Z,77.03
2022-08-23T17:49:50.039Z,77.40
2022-08-23T17:52:32.451Z,77.43
2022-08-23T17:55:01.982Z,77.11
2022-08-23T17:57:32.248Z,77.47
2022-08-23T18:00:00.778Z,77.52
2022-08-23T18:02:29.106Z,77.31
2022-08-23T18:04:56.987Z,77.19
2022-08-23T18:07:24.888Z,76.97
2022-08-23T18:09:53.226Z,76.90
2022-08-23T18:12:23.325Z,76.68
2022-08-23T18:14:52.194Z,76.57
2022-08-23T18:17:20.288Z,76.78
2022-08-23T18:19:48.291Z,76.80
2022-08-23T18:22:16.136Z,76.80
2022-08-23T18:24:46.188Z,77.38
2022-08-23T18:27:31.741Z,77.33
2022-08-23T18:30:01.289Z,76.82
2022-08-23T18:32:29.252Z,76.98
2022-08-23T18:34:57.365Z,77.10
2022-08-23T18:37:25.751Z,76.95
2022-08-23T18:39:53.597Z,76.11
2022-08-23T18:42:30.087Z,75.24
2022-08-23T18:44:58.324Z,74.69
2022-08-23T18:47:27.712Z,74.08
2022-08-23T18:49:55.970Z,74.04
2022-08-23T18:52:24.120Z,73.85
2022-08-23T18:54:52.516Z,73.90
2022-08-23T18:57:20.969Z,73.73
2022-08-23T18:59:49.047Z,73.77
2022-08-23T19:02:18.661Z,73.86
2022-08-23T19:04:48.121Z,73.52
2022-08-23T19:07:16.956Z,73.69
2022-08-23T19:09:45.174Z,74.04
2022-08-23T19:12:13.726Z,74.12
2022-08-23T19:14:41.775Z,74.43
2022-08-23T19:17:09.777Z,74.44
2022-08-23T19:19:38.818Z,74.57
2022-08-23T19:22:08.187Z,74.64
2022-08-23T19:24:36.399Z,74.42
2022-08-23T19:27:05.800Z,74.71
2022-08-23T19:29:34.847Z,74.67
2022-08-23T19:32:04.162Z,75.92
2022-08-23T19:34:32.661Z,76.38
2022-08-23T19:37:01.794Z,76.26
2022-08-23T19:39:35.109Z,76.59
2022-08-23T19:42:06.509Z,76.38
2022-08-23T19:44:38.132Z,76.38
2022-08-23T19:47:26.557Z,76.97
2022-08-23T19:50:05.669Z,77.56
2022-08-23T19:52:41.319Z,77.33
2022-08-23T19:55:11.365Z,78.43
2022-08-23T19:57:39.685Z,78.31
2022-08-23T20:00:21.937Z,78.31
2022-08-23T20:02:50.234Z,77.52
2022-08-23T20:05:18.928Z,77.50
2022-08-23T20:07:47.638Z,77.23
2022-08-23T20:10:17.277Z,77.23
2022-08-23T20:12:45.131Z,77.17
2022-08-23T20:15:17.656Z,77.67
2022-08-23T20:17:46.352Z,77.70
2022-08-23T20:20:15.037Z,77.47
2022-08-23T20:23:00.162Z,77.71
2022-08-23T20:25:30.537Z,78.41
2022-08-23T20:27:58.996Z,78.49
2022-08-23T20:30:28.182Z,78.26
2022-08-23T20:32:56.084Z,79.20
2022-08-23T20:35:24.079Z,79.86
2022-08-23T20:37:52.121Z,80.96
2022-08-23T20:40:21.761Z,81.71
2022-08-23T20:42:51.542Z,81.25
2022-08-23T20:45:22.520Z,80.77
2022-08-23T20:47:50.276Z,81.17
2022-08-23T20:50:18.192Z,81.69
2022-08-23T20:52:46.910Z,81.98
2022-08-23T20:55:14.930Z,82.44
2022-08-23T20:57:44.095Z,82.23
2022-08-23T21:00:14.462Z,82.36
2022-08-23T21:02:42.656Z,81.73
2022-08-23T21:05:10.932Z,81.41
2022-08-23T21:07:39.696Z,81.42
2022-08-23T21:10:11.460Z,81.38
2022-08-23T21:12:40.310Z,81.28
2022-08-23T21:15:11.162Z,80.88
2022-08-23T21:17:40.517Z,80.85
2022-08-23T21:20:09.246Z,80.38
2022-08-23T21:22:37.312Z,80.85
2022-08-23T21:25:08.887Z,81.27
2022-08-23T21:27:36.847Z,81.08
2022-08-23T21:30:33.710Z,80.90
2022-08-23T21:33:03.595Z,80.81
2022-08-23T21:35:34.207Z,80.64
2022-08-23T21:38:02.997Z,80.44
2022-08-23T21:40:34.526Z,80.55
2022-08-23T21:43:02.601Z,80.39
2022-08-23T21:45:30.539Z,79.92
2022-08-23T21:47:59.121Z,79.99
2022-08-23T21:50:30.585Z,79.90
2022-08-23T21:52:58.757Z,79.84
2022-08-23T21:55:31.727Z,79.81
2022-08-23T21:58:05.733Z,80.61
2022-08-23T22:00:34.091Z,80.81
2022-08-23T22:03:02.481Z,80.92
2022-08-23T22:05:32.455Z,81.04
2022-08-23T22:08:00.241Z,80.94
2022-08-23T22:10:28.026Z,80.88
2022-08-23T22:12:55.775Z,80.37
2022-08-23T22:15:25.320Z,80.17
2022-08-23T22:17:54.513Z,79.94
2022-08-23T22:20:22.266Z,79.83
2022-08-23T22:22:51.376Z,80.42
2022-08-23T22:25:19.239Z,80.24
2022-08-23T22:27:47.520Z,80.29
2022-08-23T22:30:16.514Z,80.86
2022-08-23T22:32:44.845Z,80.96
2022-08-23T22:35:12.953Z,80.31
2022-08-23T22:37:53.605Z,80.23
2022-08-23T22:40:30.411Z,79.87
2022-08-23T22:42:58.408Z,79.72
2022-08-23T22:45:26.634Z,80.40
2022-08-23T22:47:54.449Z,81.54
2022-08-23T22:50:22.181Z,82.49
2022-08-23T22:52:49.884Z,83.29
2022-08-23T22:55:17.684Z,83.48
2022-08-23T22:57:46.830Z,82.80
2022-08-23T23:00:16.155Z,82.26
2022-08-23T23:02:44.388Z,81.50
2022-08-23T23:05:12.133Z,81.04
2022-08-23T23:07:57.824Z,80.62
2022-08-23T23:10:25.645Z,80.65
2022-08-23T23:12:55.033Z,80.33
2022-08-23T23:15:22.822Z,80.22
2022-08-23T23:17:50.586Z,80.11
2022-08-23T23:20:36.029Z,80.16
2022-08-23T23:23:03.808Z,81.08
2022-08-23T23:25:31.717Z,81.28
2022-08-23T23:28:05.494Z,80.65
2022-08-23T23:30:36.297Z,80.47
2022-08-23T23:33:04.806Z,80.27
2022-08-23T23:35:32.973Z,80.57
2022-08-23T23:38:01.111Z,80.32
2022-08-23T23:40:29.400Z,79.88
2022-08-23T23:42:57.584Z,79.46
2022-08-23T23:45:27.695Z,79.06
2022-08-23T23:47:55.908Z,78.59
2022-08-23T23:50:24.450Z,78.48
2022-08-23T23:52:52.256Z,78.45
2022-08-23T23:55:21.873Z,78.09
2022-08-23T23:57:49.688Z,77.70
